sensor_id;sensor_type;location;lat;lon;timestamp;pressure;altitude;pressure_sealevel;temperature;humidity
78613;BME280;67933;51.060;3.638;2023-10-08T00:00:31;102491.97;;;13.79;80.12
78613;BME280;67933;51.060;3.638;2023-10-08T00:03:15;102501.00;;;13.77;80.45
78613;BME280;67933;51.060;3.638;2023-10-08T00:05:42;102484.84;;;13.80;80.36
78613;BME280;67933;51.060;3.638;2023-10-08T00:08:08;102484.44;;;13.89;79.97
78613;BME280;67933;51.060;3.638;2023-10-08T00:10:37;102492.31;;;13.92;80.11
78613;BME280;67933;51.060;3.638;2023-10-08T00:13:06;102505.41;;;13.78;81.62
78613;BME280;67933;51.060;3.638;2023-10-08T00:15:38;102505.94;;;13.66;82.91
78613;BME280;67933;51.060;3.638;2023-10-08T00:18:06;102505.56;;;13.55;82.68
78613;BME280;67933;51.060;3.638;2023-10-08T00:20:35;102510.06;;;13.53;83.35
78613;BME280;67933;51.060;3.638;2023-10-08T00:23:04;102506.22;;;13.60;82.93
78613;BME280;67933;51.060;3.638;2023-10-08T00:25:33;102515.25;;;13.56;82.95
78613;BME280;67933;51.060;3.638;2023-10-08T00:27:59;102517.06;;;13.55;83.41
78613;BME280;67933;51.060;3.638;2023-10-08T00:30:27;102518.13;;;13.51;83.42
78613;BME280;67933;51.060;3.638;2023-10-08T00:32:52;102519.28;;;13.45;84.18
78613;BME280;67933;51.060;3.638;2023-10-08T00:35:18;102538.31;;;13.36;84.56
78613;BME280;67933;51.060;3.638;2023-10-08T00:37:45;102539.84;;;13.22;86.65
78613;BME280;67933;51.060;3.638;2023-10-08T00:40:12;102540.53;;;13.03;87.94
78613;BME280;67933;51.060;3.638;2023-10-08T00:42:38;102535.84;;;12.88;88.38
78613;BME280;67933;51.060;3.638;2023-10-08T00:45:10;102558.94;;;12.88;88.34
78613;BME280;67933;51.060;3.638;2023-10-08T00:47:39;102557.69;;;12.75;89.32
78613;BME280;67933;51.060;3.638;2023-10-08T00:50:09;102543.00;;;12.64;89.72
78613;BME280;67933;51.060;3.638;2023-10-08T00:52:38;102544.75;;;12.65;89.99
78613;BME280;67933;51.060;3.638;2023-10-08T00:55:27;102551.13;;;12.61;91.44
78613;BME280;67933;51.060;3.638;2023-10-08T00:57:59;102535.44;;;12.54;91.30
78613;BME280;67933;51.060;3.638;2023-10-08T01:00:34;102539.19;;;12.48;91.30
78613;BME280;67933;51.060;3.638;2023-10-08T01:03:05;102542.00;;;12.45;92.42
78613;BME280;67933;51.060;3.638;2023-10-08T01:05:40;102533.28;;;12.40;92.04
78613;BME280;67933;51.060;3.638;2023-10-08T01:08:13;102520.69;;;12.45;91.78
78613;BME280;67933;51.060;3.638;2023-10-08T01:10:43;102519.53;;;12.52;92.26
78613;BME280;67933;51.060;3.638;2023-10-08T01:13:11;102528.50;;;12.71;91.04
78613;BME280;67933;51.060;3.638;2023-10-08T01:15:46;102531.75;;;12.80;90.95
78613;BME280;67933;51.060;3.638;2023-10-08T01:18:15;102528.41;;;12.75;91.07
78613;BME280;67933;51.060;3.638;2023-10-08T01:20:42;102528.25;;;12.78;90.95
78613;BME280;67933;51.060;3.638;2023-10-08T01:23:18;102532.00;;;12.73;91.92
78613;BME280;67933;51.060;3.638;2023-10-08T01:25:46;102538.44;;;12.68;92.17
78613;BME280;67933;51.060;3.638;2023-10-08T01:28:26;102520.66;;;12.68;92.45
78613;BME280;67933;51.060;3.638;2023-10-08T01:30:55;102532.75;;;12.77;92.41
78613;BME280;67933;51.060;3.638;2023-10-08T01:33:23;102517.25;;;12.87;91.77
78613;BME280;67933;51.060;3.638;2023-10-08T01:35:53;102518.88;;;12.91;91.64
78613;BME280;67933;51.060;3.638;2023-10-08T01:38:18;102517.69;;;12.98;91.68
78613;BME280;67933;51.060;3.638;2023-10-08T01:40:51;102509.56;;;13.01;91.24
78613;BME280;67933;51.060;3.638;2023-10-08T01:43:17;102502.38;;;13.03;91.38
78613;BME280;67933;51.060;3.638;2023-10-08T01:45:43;102497.19;;;13.00;92.01
78613;BME280;67933;51.060;3.638;2023-10-08T01:48:09;102500.25;;;13.11;91.76
78613;BME280;67933;51.060;3.638;2023-10-08T01:50:37;102496.97;;;13.04;92.36
78613;BME280;67933;51.060;3.638;2023-10-08T01:53:04;102495.91;;;13.08;92.11
78613;BME280;67933;51.060;3.638;2023-10-08T01:55:35;102490.47;;;13.11;92.10
78613;BME280;67933;51.060;3.638;2023-10-08T01:58:15;102502.84;;;13.14;91.80
78613;BME280;67933;51.060;3.638;2023-10-08T02:00:47;102504.63;;;13.14;92.08
78613;BME280;67933;51.060;3.638;2023-10-08T02:03:13;102500.91;;;12.96;92.46
78613;BME280;67933;51.060;3.638;2023-10-08T02:05:46;102497.69;;;12.88;93.28
78613;BME280;67933;51.060;3.638;2023-10-08T02:08:12;102494.09;;;12.89;93.21
78613;BME280;67933;51.060;3.638;2023-10-08T02:10:39;102490.00;;;12.80;94.18
78613;BME280;67933;51.060;3.638;2023-10-08T02:13:06;102492.50;;;12.85;95.11
78613;BME280;67933;51.060;3.638;2023-10-08T02:15:34;102496.53;;;12.93;94.11
78613;BME280;67933;51.060;3.638;2023-10-08T02:17:59;102508.34;;;12.88;94.31
78613;BME280;67933;51.060;3.638;2023-10-08T02:20:24;102492.59;;;12.82;95.41
78613;BME280;67933;51.060;3.638;2023-10-08T02:22:50;102492.59;;;12.82;95.96
78613;BME280;67933;51.060;3.638;2023-10-08T02:25:16;102488.03;;;12.85;95.55
78613;BME280;67933;51.060;3.638;2023-10-08T02:27:41;102500.09;;;12.94;95.37
78613;BME280;67933;51.060;3.638;2023-10-08T02:30:07;102490.91;;;12.79;96.54
78613;BME280;67933;51.060;3.638;2023-10-08T02:32:35;102501.88;;;12.71;96.55
78613;BME280;67933;51.060;3.638;2023-10-08T02:35:02;102487.91;;;12.66;96.48
78613;BME280;67933;51.060;3.638;2023-10-08T02:37:27;102506.59;;;12.87;96.85
78613;BME280;67933;51.060;3.638;2023-10-08T02:39:53;102501.72;;;12.76;97.33
78613;BME280;67933;51.060;3.638;2023-10-08T02:42:19;102513.47;;;12.70;97.14
78613;BME280;67933;51.060;3.638;2023-10-08T02:44:44;102519.22;;;12.60;97.99
78613;BME280;67933;51.060;3.638;2023-10-08T02:47:11;102525.28;;;12.63;98.55
78613;BME280;67933;51.060;3.638;2023-10-08T02:49:43;102523.84;;;12.55;98.71
78613;BME280;67933;51.060;3.638;2023-10-08T02:52:10;102524.03;;;12.50;98.90
78613;BME280;67933;51.060;3.638;2023-10-08T02:54:35;102519.94;;;12.42;99.61
78613;BME280;67933;51.060;3.638;2023-10-08T02:57:04;102519.97;;;12.40;99.30
78613;BME280;67933;51.060;3.638;2023-10-08T02:59:35;102529.59;;;12.44;100.00
78613;BME280;67933;51.060;3.638;2023-10-08T03:02:15;102522.34;;;12.48;100.00
78613;BME280;67933;51.060;3.638;2023-10-08T03:04:48;102512.09;;;12.39;99.50
78613;BME280;67933;51.060;3.638;2023-10-08T03:07:15;102511.06;;;12.41;100.00
78613;BME280;67933;51.060;3.638;2023-10-08T03:09:48;102514.19;;;12.52;100.00
78613;BME280;67933;51.060;3.638;2023-10-08T03:12:28;102523.41;;;12.44;100.00
78613;BME280;67933;51.060;3.638;2023-10-08T03:14:57;102512.25;;;12.34;100.00
78613;BME280;67933;51.060;3.638;2023-10-08T03:17:52;102521.03;;;12.36;100.00
78613;BME280;67933;51.060;3.638;2023-10-08T03:20:18;102517.91;;;12.25;100.00
78613;BME280;67933;51.060;3.638;2023-10-08T03:22:55;102514.81;;;12.14;100.00
78613;BME280;67933;51.060;3.638;2023-10-08T03:25:22;102518.09;;;12.20;100.00
78613;BME280;67933;51.060;3.638;2023-10-08T03:27:50;102516.41;;;12.18;100.00
78613;BME280;67933;51.060;3.638;2023-10-08T03:30:15;102512.38;;;12.08;100.00
78613;BME280;67933;51.060;3.638;2023-10-08T03:32:43;102513.16;;;12.10;100.00
78613;BME280;67933;51.060;3.638;2023-10-08T03:35:20;102533.75;;;12.05;100.00
78613;BME280;67933;51.060;3.638;2023-10-08T03:37:53;102522.44;;;12.00;100.00
78613;BME280;67933;51.060;3.638;2023-10-08T03:40:20;102526.22;;;11.92;100.00
78613;BME280;67933;51.060;3.638;2023-10-08T03:43:07;102522.91;;;11.86;100.00
78613;BME280;67933;51.060;3.638;2023-10-08T03:45:40;102529.31;;;11.80;100.00
78613;BME280;67933;51.060;3.638;2023-10-08T03:48:24;102532.91;;;11.79;100.00
78613;BME280;67933;51.060;3.638;2023-10-08T03:50:50;102529.53;;;11.74;100.00
78613;BME280;67933;51.060;3.638;2023-10-08T03:53:32;102541.34;;;11.66;100.00
78613;BME280;67933;51.060;3.638;2023-10-08T03:55:59;102543.06;;;11.67;100.00
78613;BME280;67933;51.060;3.638;2023-10-08T03:58:30;102536.88;;;11.66;100.00
78613;BME280;67933;51.060;3.638;2023-10-08T04:00:59;102543.91;;;11.69;100.00
78613;BME280;67933;51.060;3.638;2023-10-08T04:03:37;102548.34;;;11.68;100.00
78613;BME280;67933;51.060;3.638;2023-10-08T04:06:19;102543.03;;;11.68;100.00
78613;BME280;67933;51.060;3.638;2023-10-08T04:08:48;102540.38;;;11.68;100.00
78613;BME280;67933;51.060;3.638;2023-10-08T04:11:32;102551.00;;;11.68;100.00
78613;BME280;67933;51.060;3.638;2023-10-08T04:14:01;102542.94;;;11.70;100.00
78613;BME280;67933;51.060;3.638;2023-10-08T04:16:28;102544.75;;;11.69;100.00
78613;BME280;67933;51.060;3.638;2023-10-08T04:18:55;102548.34;;;11.68;100.00
78613;BME280;67933;51.060;3.638;2023-10-08T04:21:22;102538.69;;;11.66;100.00
78613;BME280;67933;51.060;3.638;2023-10-08T04:23:53;102546.69;;;11.64;100.00
78613;BME280;67933;51.060;3.638;2023-10-08T04:26:21;102551.19;;;11.62;100.00
78613;BME280;67933;51.060;3.638;2023-10-08T04:28:50;102546.91;;;11.58;100.00
78613;BME280;67933;51.060;3.638;2023-10-08T04:31:20;102547.78;;;11.58;100.00
78613;BME280;67933;51.060;3.638;2023-10-08T04:33:49;102547.75;;;11.60;100.00
78613;BME280;67933;51.060;3.638;2023-10-08T04:36:16;102554.94;;;11.56;100.00
78613;BME280;67933;51.060;3.638;2023-10-08T04:38:45;102547.78;;;11.58;100.00
78613;BME280;67933;51.060;3.638;2023-10-08T04:41:14;102550.41;;;11.60;100.00
78613;BME280;67933;51.060;3.638;2023-10-08T04:43:42;102547.34;;;11.71;100.00
78613;BME280;67933;51.060;3.638;2023-10-08T04:46:08;102544.53;;;11.77;100.00
78613;BME280;67933;51.060;3.638;2023-10-08T04:48:47;102539.09;;;11.80;100.00
78613;BME280;67933;51.060;3.638;2023-10-08T04:51:15;102550.28;;;11.89;100.00
78613;BME280;67933;51.060;3.638;2023-10-08T04:53:40;102547.47;;;11.92;100.00
78613;BME280;67933;51.060;3.638;2023-10-08T04:56:10;102548.34;;;11.93;100.00
78613;BME280;67933;51.060;3.638;2023-10-08T04:58:40;102544.41;;;12.05;100.00
78613;BME280;67933;51.060;3.638;2023-10-08T05:01:07;102546.13;;;12.06;100.00
78613;BME280;67933;51.060;3.638;2023-10-08T05:03:51;102552.97;;;12.13;100.00
78613;BME280;67933;51.060;3.638;2023-10-08T05:06:39;102541.16;;;12.20;100.00
78613;BME280;67933;51.060;3.638;2023-10-08T05:09:16;102540.13;;;12.24;100.00
78613;BME280;67933;51.060;3.638;2023-10-08T05:11:45;102540.59;;;12.35;100.00
78613;BME280;67933;51.060;3.638;2023-10-08T05:14:23;102546.59;;;12.40;100.00
78613;BME280;67933;51.060;3.638;2023-10-08T05:17:06;102537.59;;;12.44;100.00
78613;BME280;67933;51.060;3.638;2023-10-08T05:19:39;102547.81;;;12.55;100.00
78613;BME280;67933;51.060;3.638;2023-10-08T05:22:17;102550.56;;;12.53;100.00
78613;BME280;67933;51.060;3.638;2023-10-08T05:24:47;102552.16;;;12.57;100.00
78613;BME280;67933;51.060;3.638;2023-10-08T05:27:53;102562.34;;;12.69;100.00
78613;BME280;67933;51.060;3.638;2023-10-08T05:30:26;102566.28;;;12.59;100.00
78613;BME280;67933;51.060;3.638;2023-10-08T05:33:07;102577.22;;;12.52;100.00
78613;BME280;67933;51.060;3.638;2023-10-08T05:35:50;102572.19;;;12.44;100.00
78613;BME280;67933;51.060;3.638;2023-10-08T05:38:21;102571.56;;;12.38;100.00
78613;BME280;67933;51.060;3.638;2023-10-08T05:41:16;102570.94;;;12.31;100.00
78613;BME280;67933;51.060;3.638;2023-10-08T05:43:53;102565.66;;;12.29;100.00
78613;BME280;67933;51.060;3.638;2023-10-08T05:46:39;102563.72;;;12.33;100.00
78613;BME280;67933;51.060;3.638;2023-10-08T05:49:12;102567.22;;;12.35;100.00
78613;BME280;67933;51.060;3.638;2023-10-08T05:51:39;102560.16;;;12.34;100.00
78613;BME280;67933;51.060;3.638;2023-10-08T05:54:15;102560.81;;;12.39;100.00
78613;BME280;67933;51.060;3.638;2023-10-08T05:57:08;102556.47;;;12.38;100.00
78613;BME280;67933;51.060;3.638;2023-10-08T05:59:38;102553.72;;;12.40;100.00
78613;BME280;67933;51.060;3.638;2023-10-08T06:02:29;102564.50;;;12.37;100.00
78613;BME280;67933;51.060;3.638;2023-10-08T06:05:04;102563.50;;;12.39;100.00
78613;BME280;67933;51.060;3.638;2023-10-08T06:07:46;102566.97;;;12.41;100.00
78613;BME280;67933;51.060;3.638;2023-10-08T06:10:30;102566.88;;;12.44;100.00
78613;BME280;67933;51.060;3.638;2023-10-08T06:12:57;102571.94;;;12.50;100.00
78613;BME280;67933;51.060;3.638;2023-10-08T06:15:39;102572.72;;;12.54;100.00
78613;BME280;67933;51.060;3.638;2023-10-08T06:18:17;102567.25;;;12.57;100.00
78613;BME280;67933;51.060;3.638;2023-10-08T06:20:44;102573.34;;;12.60;100.00
78613;BME280;67933;51.060;3.638;2023-10-08T06:23:17;102579.47;;;12.62;100.00
78613;BME280;67933;51.060;3.638;2023-10-08T06:25:49;102577.59;;;12.64;100.00
78613;BME280;67933;51.060;3.638;2023-10-08T06:28:19;102588.22;;;12.66;100.00
78613;BME280;67933;51.060;3.638;2023-10-08T06:30:52;102576.19;;;12.78;100.00
78613;BME280;67933;51.060;3.638;2023-10-08T06:33:24;102576.97;;;12.81;100.00
78613;BME280;67933;51.060;3.638;2023-10-08T06:35:56;102579.56;;;12.83;100.00
78613;BME280;67933;51.060;3.638;2023-10-08T06:38:47;102578.28;;;12.93;100.00
78613;BME280;67933;51.060;3.638;2023-10-08T06:41:16;102577.78;;;13.05;100.00
78613;BME280;67933;51.060;3.638;2023-10-08T06:43:42;102582.03;;;13.09;100.00
78613;BME280;67933;51.060;3.638;2023-10-08T06:46:12;102578.59;;;13.07;100.00
78613;BME280;67933;51.060;3.638;2023-10-08T06:48:38;102579.81;;;13.22;100.00
78613;BME280;67933;51.060;3.638;2023-10-08T06:51:10;102579.19;;;13.37;100.00
78613;BME280;67933;51.060;3.638;2023-10-08T06:53:43;102578.47;;;13.54;100.00
78613;BME280;67933;51.060;3.638;2023-10-08T06:56:13;102583.00;;;13.72;100.00
78613;BME280;67933;51.060;3.638;2023-10-08T06:58:40;102587.06;;;13.80;100.00
78613;BME280;67933;51.060;3.638;2023-10-08T07:01:11;102594.75;;;13.88;100.00
78613;BME280;67933;51.060;3.638;2023-10-08T07:03:38;102578.22;;;14.00;100.00
78613;BME280;67933;51.060;3.638;2023-10-08T07:06:04;102583.13;;;14.09;100.00
78613;BME280;67933;51.060;3.638;2023-10-08T07:08:42;102591.94;;;14.11;100.00
78613;BME280;67933;51.060;3.638;2023-10-08T07:11:08;102601.47;;;14.17;100.00
78613;BME280;67933;51.060;3.638;2023-10-08T07:13:37;102609.41;;;14.18;100.00
78613;BME280;67933;51.060;3.638;2023-10-08T07:16:05;102604.75;;;14.23;100.00
78613;BME280;67933;51.060;3.638;2023-10-08T07:18:31;102612.19;;;14.36;100.00
78613;BME280;67933;51.060;3.638;2023-10-08T07:20:59;102611.25;;;14.38;100.00
78613;BME280;67933;51.060;3.638;2023-10-08T07:23:30;102599.41;;;14.44;100.00
78613;BME280;67933;51.060;3.638;2023-10-08T07:26:03;102607.63;;;14.58;99.95
78613;BME280;67933;51.060;3.638;2023-10-08T07:28:39;102603.75;;;14.65;99.70
78613;BME280;67933;51.060;3.638;2023-10-08T07:31:18;102615.63;;;14.78;99.32
78613;BME280;67933;51.060;3.638;2023-10-08T07:33:56;102609.75;;;14.89;98.52
78613;BME280;67933;51.060;3.638;2023-10-08T07:36:25;102610.06;;;15.19;97.36
78613;BME280;67933;51.060;3.638;2023-10-08T07:38:52;102596.75;;;15.36;96.29
78613;BME280;67933;51.060;3.638;2023-10-08T07:41:18;102602.91;;;15.38;95.35
78613;BME280;67933;51.060;3.638;2023-10-08T07:43:46;102600.53;;;15.49;93.52
78613;BME280;67933;51.060;3.638;2023-10-08T07:46:27;102608.16;;;15.93;92.44
78613;BME280;67933;51.060;3.638;2023-10-08T07:48:55;102608.50;;;16.52;90.21
78613;BME280;67933;51.060;3.638;2023-10-08T07:51:23;102603.94;;;16.87;86.53
78613;BME280;67933;51.060;3.638;2023-10-08T07:53:50;102599.16;;;17.24;85.04
78613;BME280;67933;51.060;3.638;2023-10-08T07:56:19;102589.22;;;17.72;84.84
78613;BME280;67933;51.060;3.638;2023-10-08T07:58:45;102588.50;;;17.98;80.82
78613;BME280;67933;51.060;3.638;2023-10-08T08:01:10;102590.06;;;18.30;79.97
78613;BME280;67933;51.060;3.638;2023-10-08T08:03:39;102590.94;;;18.59;78.73
78613;BME280;67933;51.060;3.638;2023-10-08T08:06:09;102592.47;;;18.77;76.73
78613;BME280;67933;51.060;3.638;2023-10-08T08:08:35;102598.31;;;19.52;77.17
78613;BME280;67933;51.060;3.638;2023-10-08T08:11:10;102587.72;;;19.76;73.07
78613;BME280;67933;51.060;3.638;2023-10-08T08:13:43;102581.94;;;19.94;71.37
78613;BME280;67933;51.060;3.638;2023-10-08T08:16:10;102587.00;;;20.12;71.86
78613;BME280;67933;51.060;3.638;2023-10-08T08:18:50;102600.78;;;20.07;70.42
78613;BME280;67933;51.060;3.638;2023-10-08T08:21:18;102595.19;;;20.61;70.47
78613;BME280;67933;51.060;3.638;2023-10-08T08:23:46;102602.25;;;20.87;70.38
78613;BME280;67933;51.060;3.638;2023-10-08T08:26:16;102602.63;;;21.19;66.71
78613;BME280;67933;51.060;3.638;2023-10-08T08:29:00;102594.84;;;21.62;67.82
78613;BME280;67933;51.060;3.638;2023-10-08T08:31:30;102607.56;;;22.19;67.83
78613;BME280;67933;51.060;3.638;2023-10-08T08:34:00;102607.81;;;22.49;64.03
78613;BME280;67933;51.060;3.638;2023-10-08T08:36:28;102614.22;;;22.37;63.75
78613;BME280;67933;51.060;3.638;2023-10-08T08:38:54;102610.47;;;22.16;62.97
78613;BME280;67933;51.060;3.638;2023-10-08T08:41:20;102611.84;;;21.75;65.23
78613;BME280;67933;51.060;3.638;2023-10-08T08:43:49;102612.59;;;21.54;67.21
78613;BME280;67933;51.060;3.638;2023-10-08T08:46:15;102618.75;;;22.14;65.22
78613;BME280;67933;51.060;3.638;2023-10-08T08:48:44;102615.53;;;22.32;63.19
78613;BME280;67933;51.060;3.638;2023-10-08T08:51:12;102611.28;;;22.51;63.72
78613;BME280;67933;51.060;3.638;2023-10-08T08:53:38;102610.03;;;22.33;64.85
78613;BME280;67933;51.060;3.638;2023-10-08T08:56:08;102612.94;;;23.19;63.90
78613;BME280;67933;51.060;3.638;2023-10-08T08:58:37;102597.66;;;23.18;61.02
78613;BME280;67933;51.060;3.638;2023-10-08T09:01:06;102608.38;;;22.08;63.66
78613;BME280;67933;51.060;3.638;2023-10-08T09:03:33;102607.03;;;21.68;65.95
78613;BME280;67933;51.060;3.638;2023-10-08T09:05:59;102614.53;;;21.04;67.86
78613;BME280;67933;51.060;3.638;2023-10-08T09:08:42;102615.25;;;21.19;68.47
78613;BME280;67933;51.060;3.638;2023-10-08T09:11:15;102616.16;;;21.54;67.78
78613;BME280;67933;51.060;3.638;2023-10-08T09:13:40;102616.50;;;21.97;65.43
78613;BME280;67933;51.060;3.638;2023-10-08T09:16:23;102612.25;;;22.95;63.53
78613;BME280;67933;51.060;3.638;2023-10-08T09:18:50;102608.06;;;23.77;59.17
78613;BME280;67933;51.060;3.638;2023-10-08T09:21:18;102610.38;;;23.82;61.26
78613;BME280;67933;51.060;3.638;2023-10-08T09:23:49;102612.03;;;23.73;59.71
78613;BME280;67933;51.060;3.638;2023-10-08T09:26:22;102620.06;;;23.20;63.31
78613;BME280;67933;51.060;3.638;2023-10-08T09:28:48;102623.06;;;23.06;65.53
78613;BME280;67933;51.060;3.638;2023-10-08T09:31:14;102620.84;;;23.54;60.51
78613;BME280;67933;51.060;3.638;2023-10-08T09:33:40;102625.03;;;24.62;61.18
78613;BME280;67933;51.060;3.638;2023-10-08T09:36:07;102620.94;;;24.87;57.57
78613;BME280;67933;51.060;3.638;2023-10-08T09:38:37;102626.84;;;25.51;59.71
78613;BME280;67933;51.060;3.638;2023-10-08T09:41:02;102628.28;;;25.75;56.99
78613;BME280;67933;51.060;3.638;2023-10-08T09:43:29;102623.84;;;25.54;54.14
78613;BME280;67933;51.060;3.638;2023-10-08T09:46:01;102623.56;;;25.86;54.29
78613;BME280;67933;51.060;3.638;2023-10-08T09:48:31;102610.84;;;26.43;54.11
78613;BME280;67933;51.060;3.638;2023-10-08T09:50:59;102613.25;;;26.56;51.75
78613;BME280;67933;51.060;3.638;2023-10-08T09:56:18;102600.47;;;26.93;51.97
78613;BME280;67933;51.060;3.638;2023-10-08T09:58:46;102606.66;;;27.13;52.83
78613;BME280;67933;51.060;3.638;2023-10-08T10:01:14;102605.84;;;27.48;53.32
78613;BME280;67933;51.060;3.638;2023-10-08T10:03:43;102603.47;;;27.88;48.75
78613;BME280;67933;51.060;3.638;2023-10-08T10:06:13;102596.06;;;27.55;49.09
78613;BME280;67933;51.060;3.638;2023-10-08T10:08:42;102596.91;;;28.17;47.03
78613;BME280;67933;51.060;3.638;2023-10-08T10:11:07;102601.06;;;27.85;52.05
78613;BME280;67933;51.060;3.638;2023-10-08T10:13:38;102602.03;;;27.58;50.14
78613;BME280;67933;51.060;3.638;2023-10-08T10:16:05;102598.13;;;27.79;51.06
78613;BME280;67933;51.060;3.638;2023-10-08T10:18:33;102595.03;;;28.17;48.37
78613;BME280;67933;51.060;3.638;2023-10-08T10:21:00;102600.53;;;28.25;47.21
78613;BME280;67933;51.060;3.638;2023-10-08T10:23:46;102603.22;;;27.56;50.47
78613;BME280;67933;51.060;3.638;2023-10-08T10:26:26;102610.25;;;26.49;53.27
78613;BME280;67933;51.060;3.638;2023-10-08T10:31:44;102606.88;;;28.34;48.04
78613;BME280;67933;51.060;3.638;2023-10-08T10:34:13;102615.28;;;27.71;51.07
78613;BME280;67933;51.060;3.638;2023-10-08T10:36:42;102610.81;;;27.52;50.56
78613;BME280;67933;51.060;3.638;2023-10-08T10:39:09;102602.19;;;27.57;49.66
78613;BME280;67933;51.060;3.638;2023-10-08T10:41:56;102602.28;;;28.34;49.64
78613;BME280;67933;51.060;3.638;2023-10-08T10:44:33;102611.56;;;28.76;48.63
78613;BME280;67933;51.060;3.638;2023-10-08T10:47:02;102615.19;;;28.58;46.73
78613;BME280;67933;51.060;3.638;2023-10-08T10:49:50;102608.53;;;28.27;46.94
78613;BME280;67933;51.060;3.638;2023-10-08T10:52:17;102609.59;;;28.34;52.05
78613;BME280;67933;51.060;3.638;2023-10-08T10:55:07;102607.63;;;28.44;45.95
78613;BME280;67933;51.060;3.638;2023-10-08T10:57:51;102599.63;;;28.17;46.54
78613;BME280;67933;51.060;3.638;2023-10-08T11:00:49;102593.13;;;27.74;48.44
78613;BME280;67933;51.060;3.638;2023-10-08T11:03:22;102585.34;;;27.79;48.23
78613;BME280;67933;51.060;3.638;2023-10-08T11:05:58;102587.16;;;27.53;49.90
78613;BME280;67933;51.060;3.638;2023-10-08T11:08:26;102588.50;;;27.92;49.37
78613;BME280;67933;51.060;3.638;2023-10-08T11:10:52;102580.28;;;28.36;46.30
78613;BME280;67933;51.060;3.638;2023-10-08T11:13:19;102575.63;;;28.62;46.19
78613;BME280;67933;51.060;3.638;2023-10-08T11:15:50;102575.81;;;28.69;46.21
78613;BME280;67933;51.060;3.638;2023-10-08T11:18:19;102577.63;;;28.86;46.10
78613;BME280;67933;51.060;3.638;2023-10-08T11:20:46;102571.72;;;29.23;44.76
78613;BME280;67933;51.060;3.638;2023-10-08T11:23:36;102564.22;;;28.07;45.48
78613;BME280;67933;51.060;3.638;2023-10-08T11:26:05;102578.88;;;27.09;48.77
78613;BME280;67933;51.060;3.638;2023-10-08T11:28:33;102573.50;;;27.71;48.44
78613;BME280;67933;51.060;3.638;2023-10-08T11:31:07;102567.97;;;28.06;48.15
78613;BME280;67933;51.060;3.638;2023-10-08T11:33:38;102563.50;;;28.23;47.00
78613;BME280;67933;51.060;3.638;2023-10-08T11:36:05;102564.00;;;28.26;47.65
78613;BME280;67933;51.060;3.638;2023-10-08T11:38:56;102559.03;;;28.98;44.74
78613;BME280;67933;51.060;3.638;2023-10-08T11:41:27;102562.19;;;28.35;46.69
78613;BME280;67933;51.060;3.638;2023-10-08T11:43:54;102566.41;;;27.78;46.73
78613;BME280;67933;51.060;3.638;2023-10-08T11:46:30;102550.38;;;27.57;46.48
78613;BME280;67933;51.060;3.638;2023-10-08T11:49:05;102560.31;;;26.95;46.88
78613;BME280;67933;51.060;3.638;2023-10-08T11:51:32;102547.72;;;27.30;47.34
78613;BME280;67933;51.060;3.638;2023-10-08T11:53:59;102555.53;;;27.25;47.03
78613;BME280;67933;51.060;3.638;2023-10-08T11:56:25;102546.09;;;27.37;47.52
78613;BME280;67933;51.060;3.638;2023-10-08T11:58:51;102544.06;;;28.34;47.25
78613;BME280;67933;51.060;3.638;2023-10-08T12:01:17;102536.91;;;28.07;44.88
78613;BME280;67933;51.060;3.638;2023-10-08T12:03:47;102552.75;;;27.78;44.55
78613;BME280;67933;51.060;3.638;2023-10-08T12:06:15;102544.91;;;27.22;45.58
78613;BME280;67933;51.060;3.638;2023-10-08T12:08:44;102547.50;;;27.58;46.80
78613;BME280;67933;51.060;3.638;2023-10-08T12:11:12;102534.72;;;27.59;46.52
78613;BME280;67933;51.060;3.638;2023-10-08T12:13:39;102543.31;;;28.16;44.38
78613;BME280;67933;51.060;3.638;2023-10-08T12:16:14;102536.22;;;28.31;43.80
78613;BME280;67933;51.060;3.638;2023-10-08T12:18:48;102536.84;;;28.59;44.36
78613;BME280;67933;51.060;3.638;2023-10-08T12:21:18;102521.97;;;28.95;43.95
78613;BME280;67933;51.060;3.638;2023-10-08T12:23:43;102523.03;;;29.11;42.08
78613;BME280;67933;51.060;3.638;2023-10-08T12:26:10;102522.19;;;29.34;42.04
78613;BME280;67933;51.060;3.638;2023-10-08T12:28:41;102525.56;;;29.04;43.18
78613;BME280;67933;51.060;3.638;2023-10-08T12:31:07;102520.47;;;29.25;41.80
78613;BME280;67933;51.060;3.638;2023-10-08T12:33:35;102514.81;;;28.94;45.22
78613;BME280;67933;51.060;3.638;2023-10-08T12:36:01;102514.03;;;28.34;43.94
78613;BME280;67933;51.060;3.638;2023-10-08T12:38:36;102507.66;;;29.34;42.43
78613;BME280;67933;51.060;3.638;2023-10-08T12:41:02;102519.06;;;28.97;41.95
78613;BME280;67933;51.060;3.638;2023-10-08T12:43:37;102514.69;;;29.53;42.19
78613;BME280;67933;51.060;3.638;2023-10-08T12:46:04;102511.44;;;29.57;41.02
78613;BME280;67933;51.060;3.638;2023-10-08T12:48:36;102511.75;;;29.30;40.75
78613;BME280;67933;51.060;3.638;2023-10-08T12:51:02;102511.38;;;29.81;39.51
78613;BME280;67933;51.060;3.638;2023-10-08T12:53:31;102506.81;;;30.29;42.79
78613;BME280;67933;51.060;3.638;2023-10-08T12:56:02;102496.91;;;29.65;40.19
78613;BME280;67933;51.060;3.638;2023-10-08T12:58:32;102495.03;;;29.65;41.41
78613;BME280;67933;51.060;3.638;2023-10-08T13:01:04;102497.16;;;30.10;41.66
78613;BME280;67933;51.060;3.638;2023-10-08T13:03:32;102493.06;;;29.98;39.36
78613;BME280;67933;51.060;3.638;2023-10-08T13:05:58;102481.06;;;30.07;40.46
78613;BME280;67933;51.060;3.638;2023-10-08T13:08:36;102490.53;;;30.36;44.39
78613;BME280;67933;51.060;3.638;2023-10-08T13:11:02;102487.22;;;30.56;38.60
78613;BME280;67933;51.060;3.638;2023-10-08T13:13:29;102483.13;;;29.89;39.88